アスタナ の空港の天気 - METARとTAF

アスタナ国際空港 ( UACC / TSE ) - カザフスタン アスタナ
飛行場実況気象(Metar)
観測時間08/05 04:00 QYZT (08/04 23:00 UTC)
風向・風速東北東 5m/s
視程10km以上
天気現象
なし
気温15℃
湿度82%
気圧1011hPa
METARUACC 042300Z 06005MPS CAVOK 15/12 Q1011 R04/0///70 NOSIG RMK QFE727/0969
過去の天気等 Google飛行場航空写真 Wunderground天気予報

過去48時間のMETAR

飛行場予報(TAF)
発表時間: 8/04 22:00 QYZT (8/04 17:00 UTC)
予報対象時間: 4日23時 QYZT ~ 5日23時 QYZT
風向・風速東北東 5m/s
視程10km以上
なし
5日8時 QYZT ~ 5日9時 QYZT に徐々に
風向・風速東北東 8m/s
5日8時 QYZT ~ 5日19時 QYZT に一時的に
風向・風速東北東 8m/s 瞬間風速 13m/s
全天の4割程度の雲 雲底高度 910m
TAF UACC 041700Z 0418/0518 06005MPS CAVOK TX29/0510Z TN16/0423Z
BECMG 0503/0504 06008MPS
TEMPO 0503/0514 07008G13MPS SCT030